Time;durP1;ratioP1;P1;durP2;ratioP2;P2;SDS_P1;SDS_P2;PMS_P1;PMS_P2;Temp;Humidity;BMP_temperature;BMP_pressure;BME280_temperature;BME280_humidity;BME280_pressure;Samples;Min_cycle;Max_cycle;Signal;HPM_P1;HPM_P2
2023/10/01 00:00:09;;;;;;;0.60;0.60;;;;;;;;;;4996272;28;59582;-74
2023/10/01 00:02:34;;;;;;;0.50;0.50;;;;;;;;;;4996875;28;58520;-73
2023/10/01 00:05:00;;;;;;;0.93;0.82;;;;;;;;;;4994744;28;58420;-74
2023/10/01 00:07:26;;;;;;;1.43;0.70;;;;;;;;;;4991767;28;58997;-73
2023/10/01 00:09:52;;;;;;;0.75;0.75;;;;;;;;;;4987882;28;58441;-73
2023/10/01 00:12:17;;;;;;;0.90;0.60;;;;;;;;;;4991574;28;59387;-71
2023/10/01 00:14:42;;;;;;;0.70;0.60;;;;;;;;;;4989867;28;58893;-70
2023/10/01 00:17:08;;;;;;;0.57;0.57;;;;;;;;;;4986530;28;58487;-73
2023/10/01 00:19:33;;;;;;;0.60;0.50;;;;;;;;;;4992477;28;58464;-71
2023/10/01 00:22:00;;;;;;;2.28;0.60;;;;;;;;;;4989866;28;58440;-71
2023/10/01 00:24:25;;;;;;;1.13;0.90;;;;;;;;;;4990929;28;58765;-71
2023/10/01 00:26:52;;;;;;;2.53;0.77;;;;;;;;;;4990982;28;58800;-68
2023/10/01 00:29:17;;;;;;;1.02;0.80;;;;;;;;;;4990806;28;58528;-73
2023/10/01 00:31:42;;;;;;;0.82;0.50;;;;;;;;;;4993451;28;58467;-70
2023/10/01 00:34:07;;;;;;;1.40;0.83;;;;;;;;;;4989931;28;58901;-70
2023/10/01 00:36:35;;;;;;;0.80;0.80;;;;;;;;;;4996322;28;58417;-73
2023/10/01 00:39:02;;;;;;;1.10;0.70;;;;;;;;;;5000107;28;59528;-73
2023/10/01 00:41:28;;;;;;;0.73;0.73;;;;;;;;;;5000380;28;58445;-72
2023/10/01 00:43:55;;;;;;;0.40;0.40;;;;;;;;;;5001588;28;58468;-68
2023/10/01 00:46:20;;;;;;;0.70;0.70;;;;;;;;;;5000439;28;59532;-72
2023/10/01 00:48:47;;;;;;;0.67;0.67;;;;;;;;;;4998352;28;58948;-68
2023/10/01 00:51:12;;;;;;;0.88;0.70;;;;;;;;;;5001716;28;58319;-70
2023/10/01 00:53:38;;;;;;;1.90;0.70;;;;;;;;;;5002459;28;59633;-71
2023/10/01 00:56:04;;;;;;;0.50;0.50;;;;;;;;;;4999180;28;58446;-71
2023/10/01 00:58:29;;;;;;;1.67;0.77;;;;;;;;;;5001392;28;59451;-72
2023/10/01 01:00:55;;;;;;;2.70;1.00;;;;;;;;;;5000254;28;58929;-69
2023/10/01 01:03:22;;;;;;;0.60;0.60;;;;;;;;;;4999512;28;58363;-70
2023/10/01 01:05:57;;;;;;;1.05;0.95;;;;;;;;;;5000429;28;58756;-70
2023/10/01 01:08:28;;;;;;;0.50;0.50;;;;;;;;;;4998591;28;58811;-68
2023/10/01 01:10:53;;;;;;;1.23;1.00;;;;;;;;;;4999829;28;58506;-68
2023/10/01 01:13:19;;;;;;;1.13;1.02;;;;;;;;;;4998804;28;60700;-68
2023/10/01 01:15:45;;;;;;;1.40;0.70;;;;;;;;;;5001144;28;58399;-68
2023/10/01 01:18:13;;;;;;;0.80;0.80;;;;;;;;;;4998929;28;59244;-69
2023/10/01 01:20:43;;;;;;;;;;;;;;;;;;5000495;28;58548;-69
2023/10/01 01:23:14;;;;;;;1.13;0.68;;;;;;;;;;4999999;28;58444;-69
2023/10/01 01:25:39;;;;;;;1.08;0.73;;;;;;;;;;4998650;28;59236;-68
2023/10/01 01:28:12;;;;;;;1.00;0.87;;;;;;;;;;4998847;28;59042;-72
2023/10/01 01:30:41;;;;;;;0.80;0.65;;;;;;;;;;4998334;28;58465;-69
2023/10/01 01:33:07;;;;;;;1.00;0.80;;;;;;;;;;4999652;28;58428;-71
2023/10/01 01:35:35;;;;;;;1.50;0.90;;;;;;;;;;5000969;28;58565;-68
2023/10/01 01:38:01;;;;;;;1.10;1.00;;;;;;;;;;4999871;28;58977;-70
2023/10/01 01:40:36;;;;;;;1.15;1.00;;;;;;;;;;4999393;28;59003;-67
2023/10/01 01:43:15;;;;;;;1.02;1.02;;;;;;;;;;4999896;28;58485;-70
2023/10/01 01:45:43;;;;;;;1.02;0.60;;;;;;;;;;4998602;28;59386;-70
2023/10/01 01:48:21;;;;;;;1.20;1.00;;;;;;;;;;4998942;28;59944;-68
2023/10/01 01:50:47;;;;;;;2.60;0.60;;;;;;;;;;4998663;28;58445;-68
2023/10/01 01:53:12;;;;;;;0.65;0.63;;;;;;;;;;4998833;28;59049;-68
2023/10/01 01:55:38;;;;;;;0.60;0.60;;;;;;;;;;4999765;28;58740;-68
2023/10/01 01:58:09;;;;;;;1.10;0.87;;;;;;;;;;5000662;28;58568;-73
2023/10/01 02:00:35;;;;;;;0.70;0.70;;;;;;;;;;4999301;28;58887;-73
2023/10/01 02:03:10;;;;;;;0.98;0.98;;;;;;;;;;4996311;28;58447;-70
2023/10/01 02:05:36;;;;;;;1.15;1.00;;;;;;;;;;4998463;28;60020;-70
2023/10/01 02:08:06;;;;;;;0.90;0.80;;;;;;;;;;5000093;28;58912;-71
2023/10/01 02:10:32;;;;;;;1.13;0.80;;;;;;;;;;4999794;28;58511;-71
2023/10/01 02:13:11;;;;;;;0.93;0.70;;;;;;;;;;4998804;28;59651;-73
2023/10/01 02:15:36;;;;;;;1.35;0.90;;;;;;;;;;4999185;28;59005;-70
2023/10/01 02:18:02;;;;;;;1.20;1.10;;;;;;;;;;4998315;28;58550;-70
2023/10/01 02:20:27;;;;;;;0.77;0.77;;;;;;;;;;4999664;28;60074;-69
2023/10/01 02:22:53;;;;;;;1.33;0.77;;;;;;;;;;5000636;28;58374;-69
2023/10/01 02:25:18;;;;;;;0.60;0.60;;;;;;;;;;5000339;28;60089;-69
2023/10/01 02:28:05;;;;;;;1.10;0.65;;;;;;;;;;4997885;28;60293;-70
2023/10/01 02:30:32;;;;;;;1.15;0.70;;;;;;;;;;4997331;28;58386;-70
2023/10/01 02:33:16;;;;;;;0.70;0.70;;;;;;;;;;4996290;28;59720;-70
2023/10/01 02:35:41;;;;;;;0.80;0.80;;;;;;;;;;4998564;28;59023;-70
2023/10/01 02:38:07;;;;;;;1.42;1.27;;;;;;;;;;4997982;28;58391;-70
2023/10/01 02:40:40;;;;;;;1.45;1.20;;;;;;;;;;4999682;28;59647;-70
2023/10/01 02:43:08;;;;;;;1.13;1.00;;;;;;;;;;4997420;28;60049;-70
2023/10/01 02:45:35;;;;;;;1.85;1.00;;;;;;;;;;4999272;28;59416;-70
2023/10/01 02:48:18;;;;;;;1.23;0.93;;;;;;;;;;4997905;28;59072;-69
2023/10/01 02:50:52;;;;;;;0.90;0.80;;;;;;;;;;4999538;28;58448;-70
2023/10/01 02:53:22;;;;;;;1.25;1.08;;;;;;;;;;4998941;28;59539;-70
2023/10/01 02:55:56;;;;;;;0.98;0.90;;;;;;;;;;4998528;28;60050;-70
2023/10/01 02:58:27;;;;;;;1.05;1.05;;;;;;;;;;4998031;28;58556;-70
2023/10/01 03:00:53;;;;;;;0.70;0.70;;;;;;;;;;4997451;28;59914;-70
2023/10/01 03:03:18;;;;;;;2.10;1.70;;;;;;;;;;4998578;28;59752;-70
2023/10/01 03:05:46;;;;;;;0.90;0.80;;;;;;;;;;4998005;28;58388;-70
2023/10/01 03:08:25;;;;;;;0.80;0.70;;;;;;;;;;4997853;28;58768;-70
2023/10/01 03:10:52;;;;;;;0.95;0.90;;;;;;;;;;4997623;28;58388;-70
2023/10/01 03:13:19;;;;;;;1.17;0.90;;;;;;;;;;4998882;28;58654;-70
2023/10/01 03:15:44;;;;;;;0.90;0.80;;;;;;;;;;4997421;28;59742;-70
2023/10/01 03:18:34;;;;;;;1.60;1.13;;;;;;;;;;4995990;28;58552;-70
2023/10/01 03:25:57;;;;;;;1.50;1.13;;;;;;;;;;4999860;28;58445;-70
2023/10/01 03:28:26;;;;;;;0.80;0.80;;;;;;;;;;4993372;28;58652;-70
2023/10/01 03:31:06;;;;;;;1.70;1.30;;;;;;;;;;4998497;28;58600;-70
2023/10/01 03:33:32;;;;;;;1.02;0.82;;;;;;;;;;4997495;28;60450;-70
2023/10/01 03:35:57;;;;;;;1.45;1.35;;;;;;;;;;4997131;28;58473;-70
2023/10/01 03:38:24;;;;;;;1.10;1.00;;;;;;;;;;4998512;28;58509;-70
2023/10/01 03:41:02;;;;;;;1.02;0.95;;;;;;;;;;4999170;28;60525;-70
2023/10/01 03:43:36;;;;;;;1.00;0.95;;;;;;;;;;4996845;28;63235;-70
2023/10/01 03:48:58;;;;;;;1.40;1.30;;;;;;;;;;4997661;28;58540;-70
2023/10/01 03:51:52;;;;;;;0.90;0.90;;;;;;;;;;4997126;28;58549;-70
2023/10/01 03:54:19;;;;;;;1.13;1.05;;;;;;;;;;4998939;28;59047;-70
2023/10/01 03:56:55;;;;;;;1.27;1.10;;;;;;;;;;4996870;28;58392;-70
2023/10/01 03:59:20;;;;;;;1.45;1.35;;;;;;;;;;4997238;28;58477;-70
2023/10/01 04:02:27;;;;;;;1.17;1.00;;;;;;;;;;4998774;28;60913;-70
2023/10/01 04:04:31;;;;;;;1.35;1.10;;;;;;;;;;4978336;28;64027;-70
2023/10/01 04:07:09;;;;;;;1.08;0.98;;;;;;;;;;4991874;28;58587;-69
2023/10/01 04:09:45;;;;;;;1.02;0.88;;;;;;;;;;4995828;28;60498;-70
2023/10/01 04:12:20;;;;;;;1.05;0.98;;;;;;;;;;5001194;28;60688;-70
2023/10/01 04:14:52;;;;;;;0.73;0.73;;;;;;;;;;4998357;28;59474;-70
2023/10/01 04:17:18;;;;;;;1.15;0.90;;;;;;;;;;4994428;28;59260;-70
2023/10/01 04:19:44;;;;;;;0.82;0.82;;;;;;;;;;4994308;28;58556;-70
2023/10/01 04:22:09;;;;;;;2.92;1.00;;;;;;;;;;4992714;28;60394;-70
2023/10/01 04:24:35;;;;;;;1.17;1.08;;;;;;;;;;4992825;28;58922;-70
2023/10/01 04:27:18;;;;;;;1.03;1.00;;;;;;;;;;4994551;28;58662;-69
2023/10/01 04:29:44;;;;;;;1.35;0.93;;;;;;;;;;4999976;28;60340;-70
2023/10/01 04:32:12;;;;;;;1.88;1.38;;;;;;;;;;4999570;28;59025;-70
2023/10/01 04:34:37;;;;;;;1.15;1.05;;;;;;;;;;5002120;28;58425;-70
2023/10/01 04:37:03;;;;;;;0.70;0.70;;;;;;;;;;4996654;28;58582;-70
2023/10/01 04:39:29;;;;;;;1.35;1.25;;;;;;;;;;4998246;28;58525;-70
2023/10/01 04:41:59;;;;;;;0.90;0.90;;;;;;;;;;5001137;28;59833;-70
2023/10/01 04:44:24;;;;;;;1.10;1.08;;;;;;;;;;5001090;28;59292;-70
2023/10/01 04:46:51;;;;;;;1.55;1.33;;;;;;;;;;5001533;28;58417;-70
2023/10/01 04:49:31;;;;;;;0.85;0.85;;;;;;;;;;5000619;28;61435;-70
2023/10/01 04:51:58;;;;;;;1.13;1.00;;;;;;;;;;4997466;28;58929;-70
2023/10/01 04:54:26;;;;;;;1.65;1.55;;;;;;;;;;4997541;28;58454;-70
2023/10/01 04:56:51;;;;;;;1.38;1.25;;;;;;;;;;4999110;28;60320;-70
2023/10/01 04:59:17;;;;;;;1.35;1.15;;;;;;;;;;5001526;28;58547;-70
2023/10/01 05:01:42;;;;;;;1.30;1.17;;;;;;;;;;5000635;28;58727;-69
2023/10/01 05:04:11;;;;;;;1.95;1.63;;;;;;;;;;5000852;28;59707;-68
2023/10/01 05:06:36;;;;;;;1.48;1.13;;;;;;;;;;4999854;28;58461;-68
2023/10/01 05:09:02;;;;;;;1.70;1.43;;;;;;;;;;5000344;28;58592;-68
2023/10/01 05:11:31;;;;;;;2.10;1.63;;;;;;;;;;4997548;28;58966;-67
2023/10/01 05:13:58;;;;;;;1.52;1.30;;;;;;;;;;5000193;28;58452;-68
2023/10/01 05:16:27;;;;;;;1.02;1.00;;;;;;;;;;4999430;28;58793;-69
2023/10/01 05:19:12;;;;;;;1.35;1.25;;;;;;;;;;4998664;28;59752;-68
2023/10/01 05:21:46;;;;;;;1.50;1.40;;;;;;;;;;4999587;28;60165;-68
2023/10/01 05:24:15;;;;;;;1.00;0.90;;;;;;;;;;4998673;28;58983;-68
2023/10/01 05:26:43;;;;;;;1.08;0.98;;;;;;;;;;4996216;28;58524;-68
2023/10/01 05:29:09;;;;;;;1.48;1.13;;;;;;;;;;5000992;28;59354;-68
2023/10/01 05:31:34;;;;;;;1.10;1.00;;;;;;;;;;5000792;28;58472;-68
2023/10/01 05:34:00;;;;;;;1.20;1.10;;;;;;;;;;4999179;28;58382;-68
2023/10/01 05:36:26;;;;;;;1.40;1.30;;;;;;;;;;4997093;28;58463;-68
2023/10/01 05:38:54;;;;;;;1.33;1.23;;;;;;;;;;4999442;28;58964;-68
2023/10/01 05:41:29;;;;;;;;;;;;;;;;;;4999000;28;58990;-68
2023/10/01 05:43:54;;;;;;;1.35;1.25;;;;;;;;;;5000179;28;58519;-68
2023/10/01 05:46:22;;;;;;;1.38;1.10;;;;;;;;;;4997991;28;58693;-68
2023/10/01 05:48:49;;;;;;;2.15;1.10;;;;;;;;;;4998367;28;59360;-68
2023/10/01 05:51:15;;;;;;;2.00;1.50;;;;;;;;;;4997552;28;59113;-68
2023/10/01 05:53:41;;;;;;;1.30;1.20;;;;;;;;;;4999852;28;58499;-69
2023/10/01 05:56:10;;;;;;;1.08;0.98;;;;;;;;;;4999746;28;58786;-69
2023/10/01 05:58:36;;;;;;;1.67;1.23;;;;;;;;;;5000013;28;58874;-69
2023/10/01 06:01:13;;;;;;;2.20;1.05;;;;;;;;;;4998028;28;58461;-68
2023/10/01 06:03:40;;;;;;;1.60;1.50;;;;;;;;;;4997716;28;59797;-68
2023/10/01 06:06:08;;;;;;;1.17;1.08;;;;;;;;;;4997012;28;58350;-68
2023/10/01 06:08:34;;;;;;;;;;;;;;;;;;4997442;28;59468;-67
2023/10/01 06:11:06;;;;;;;1.37;1.27;;;;;;;;;;4999181;28;59529;-69
2023/10/01 06:13:37;;;;;;;1.55;1.40;;;;;;;;;;4968148;28;58509;-68
2023/10/01 06:16:11;;;;;;;1.80;1.65;;;;;;;;;;4995383;28;59247;-69
2023/10/01 06:18:41;;;;;;;1.35;1.13;;;;;;;;;;4997266;28;58467;-68
2023/10/01 06:21:07;;;;;;;1.67;1.35;;;;;;;;;;4989624;28;58573;-68
2023/10/01 06:23:33;;;;;;;1.67;1.48;;;;;;;;;;4997509;28;58720;-69
2023/10/01 06:25:58;;;;;;;1.45;1.33;;;;;;;;;;4999190;28;58547;-69
2023/10/01 06:28:24;;;;;;;1.75;1.13;;;;;;;;;;4996980;28;60543;-69
2023/10/01 06:30:49;;;;;;;1.48;1.30;;;;;;;;;;4998562;28;59887;-69
2023/10/01 06:33:26;;;;;;;1.20;1.10;;;;;;;;;;4998125;28;58457;-69
2023/10/01 06:38:39;;;;;;;2.45;1.45;;;;;;;;;;4998638;28;58496;-69
2023/10/01 06:41:13;;;;;;;1.93;1.63;;;;;;;;;;5000866;28;58468;-68
2023/10/01 06:43:48;;;;;;;1.65;1.55;;;;;;;;;;4999069;28;60385;-69
2023/10/01 06:46:13;;;;;;;1.45;1.30;;;;;;;;;;4998473;28;58438;-69
2023/10/01 06:48:40;;;;;;;1.35;1.25;;;;;;;;;;4999474;28;59156;-69
2023/10/01 06:51:06;;;;;;;2.83;1.45;;;;;;;;;;4999101;28;58441;-69
2023/10/01 06:53:45;;;;;;;1.75;1.50;;;;;;;;;;4992557;28;58393;-70
2023/10/01 06:56:10;;;;;;;1.80;1.20;;;;;;;;;;4997464;28;59755;-69
2023/10/01 06:58:35;;;;;;;3.03;1.50;;;;;;;;;;4998832;28;58619;-72
2023/10/01 07:01:02;;;;;;;1.37;1.27;;;;;;;;;;4996743;28;58362;-69
2023/10/01 07:03:30;;;;;;;1.40;1.20;;;;;;;;;;4997419;28;59930;-70
2023/10/01 07:05:55;;;;;;;1.45;1.30;;;;;;;;;;4997492;28;58398;-70
2023/10/01 07:08:32;;;;;;;2.35;1.50;;;;;;;;;;4998297;28;58712;-70
2023/10/01 07:11:11;;;;;;;1.30;1.10;;;;;;;;;;4998480;28;59301;-70
2023/10/01 07:13:36;;;;;;;1.30;1.17;;;;;;;;;;4998517;28;58201;-70
2023/10/01 07:16:01;;;;;;;2.45;1.48;;;;;;;;;;4995910;28;58467;-70
2023/10/01 07:18:26;;;;;;;1.37;1.27;;;;;;;;;;4997447;28;59059;-69
2023/10/01 07:20:52;;;;;;;4.83;1.63;;;;;;;;;;4998572;28;58475;-70
2023/10/01 07:23:21;;;;;;;2.10;1.37;;;;;;;;;;4998265;28;59534;-69
2023/10/01 07:25:47;;;;;;;1.75;1.65;;;;;;;;;;4996804;28;59794;-70
2023/10/01 07:28:12;;;;;;;3.78;1.98;;;;;;;;;;4997435;28;58449;-70
2023/10/01 07:30:45;;;;;;;1.40;1.30;;;;;;;;;;4998710;28;58887;-70
2023/10/01 07:33:10;;;;;;;5.38;2.15;;;;;;;;;;4996208;28;58459;-71
2023/10/01 07:35:40;;;;;;;2.15;1.17;;;;;;;;;;4998181;28;59368;-71
2023/10/01 07:38:06;;;;;;;1.88;1.70;;;;;;;;;;4996283;28;59959;-71
2023/10/01 07:40:50;;;;;;;3.22;1.10;;;;;;;;;;4995732;28;58432;-71
2023/10/01 07:43:15;;;;;;;1.77;1.48;;;;;;;;;;4994453;28;58957;-72
2023/10/01 07:45:41;;;;;;;1.43;1.33;;;;;;;;;;4997938;28;58532;-70
2023/10/01 07:48:06;;;;;;;3.60;1.25;;;;;;;;;;4996336;28;58511;-71
2023/10/01 07:50:31;;;;;;;0.88;0.88;;;;;;;;;;4997944;28;59354;-71
2023/10/01 07:53:03;;;;;;;3.00;1.37;;;;;;;;;;4996261;28;58453;-72
2023/10/01 07:55:35;;;;;;;4.50;2.15;;;;;;;;;;4998298;28;62606;-71
2023/10/01 08:00:44;;;;;;;3.47;1.35;;;;;;;;;;4997429;28;58485;-72
2023/10/01 08:05:47;;;;;;;3.05;1.45;;;;;;;;;;4995678;28;58477;-72
2023/10/01 08:08:13;;;;;;;6.95;1.27;;;;;;;;;;4997318;28;58552;-71
2023/10/01 08:10:39;;;;;;;2.75;1.65;;;;;;;;;;4997898;28;59202;-72
2023/10/01 08:13:06;;;;;;;5.00;1.67;;;;;;;;;;4999185;28;58374;-71
2023/10/01 08:15:38;;;;;;;4.63;1.90;;;;;;;;;;4994969;28;58439;-71
2023/10/01 08:18:26;;;;;;;2.17;1.27;;;;;;;;;;4994590;28;60247;-71
2023/10/01 08:20:58;;;;;;;2.20;1.45;;;;;;;;;;4996409;28;58755;-71
2023/10/01 08:23:24;;;;;;;9.80;2.58;;;;;;;;;;4996003;28;60347;-71
2023/10/01 08:25:54;;;;;;;3.05;1.75;;;;;;;;;;4995022;28;58810;-71
2023/10/01 08:30:49;;;;;;;;;;;;;;;;;;4994112;28;59101;-72
2023/10/01 08:33:25;;;;;;;6.30;1.88;;;;;;;;;;4997938;28;58560;-71
2023/10/01 08:35:56;;;;;;;2.95;1.60;;;;;;;;;;4997745;28;58461;-72
2023/10/01 08:38:29;;;;;;;7.65;1.77;;;;;;;;;;4995441;28;58970;-71
2023/10/01 08:40:59;;;;;;;1.58;1.45;;;;;;;;;;4998928;28;58346;-71
2023/10/01 08:43:28;;;;;;;1.20;1.10;;;;;;;;;;4995753;28;58735;-70
2023/10/01 08:45:54;;;;;;;2.13;1.73;;;;;;;;;;4997518;28;59009;-70
2023/10/01 08:48:19;;;;;;;1.42;1.33;;;;;;;;;;4999144;28;58405;-71
2023/10/01 08:50:45;;;;;;;4.97;1.80;;;;;;;;;;4991658;28;59926;-69
2023/10/01 08:53:12;;;;;;;4.13;1.52;;;;;;;;;;4994811;28;58605;-69
2023/10/01 08:58:25;;;;;;;1.60;1.27;;;;;;;;;;5001034;28;60684;-69
2023/10/01 09:00:52;;;;;;;2.22;1.33;;;;;;;;;;5001643;28;58527;-69
2023/10/01 09:03:29;;;;;;;2.85;1.92;;;;;;;;;;5001409;28;58858;-69
2023/10/01 09:06:03;;;;;;;2.72;1.45;;;;;;;;;;4998279;28;59977;-68
2023/10/01 09:08:31;;;;;;;4.75;1.48;;;;;;;;;;4997350;28;58426;-71
2023/10/01 09:10:59;;;;;;;1.83;1.50;;;;;;;;;;5000485;28;59504;-68
2023/10/01 09:13:26;;;;;;;2.90;1.65;;;;;;;;;;5000500;28;58448;-68
2023/10/01 09:15:55;;;;;;;2.92;1.65;;;;;;;;;;5001073;28;58275;-69
2023/10/01 09:18:24;;;;;;;4.15;2.05;;;;;;;;;;5001100;28;59491;-69
2023/10/01 09:21:06;;;;;;;4.05;1.95;;;;;;;;;;4999509;28;58583;-69
2023/10/01 09:23:56;;;;;;;2.22;1.55;;;;;;;;;;4998785;28;59977;-68
2023/10/01 09:26:39;;;;;;;1.33;1.10;;;;;;;;;;4996767;28;59415;-68
2023/10/01 09:29:23;;;;;;;2.13;1.45;;;;;;;;;;4996912;28;58429;-68
2023/10/01 09:31:52;;;;;;;4.13;1.73;;;;;;;;;;5001241;28;60148;-70
2023/10/01 09:34:31;;;;;;;1.55;1.35;;;;;;;;;;4996860;28;58916;-68
2023/10/01 09:36:56;;;;;;;3.83;1.38;;;;;;;;;;4998193;28;58424;-68
2023/10/01 09:39:32;;;;;;;5.00;1.65;;;;;;;;;;4986486;28;59178;-72
2023/10/01 09:41:57;;;;;;;1.73;1.20;;;;;;;;;;4999705;28;58377;-71
2023/10/01 09:44:23;;;;;;;6.80;2.00;;;;;;;;;;5001047;28;58385;-71
2023/10/01 09:46:49;;;;;;;3.95;1.80;;;;;;;;;;4998455;28;59168;-70
2023/10/01 09:49:30;;;;;;;3.67;1.58;;;;;;;;;;5000581;28;58379;-71
2023/10/01 09:51:58;;;;;;;2.03;1.83;;;;;;;;;;4999844;28;59835;-72
2023/10/01 09:54:28;;;;;;;3.22;1.73;;;;;;;;;;4999304;28;59037;-72
2023/10/01 09:56:54;;;;;;;7.68;1.73;;;;;;;;;;5000914;28;58540;-72
2023/10/01 09:59:19;;;;;;;1.63;1.30;;;;;;;;;;5000941;28;59203;-72
2023/10/01 10:01:47;;;;;;;2.77;1.30;;;;;;;;;;5000283;28;58933;-71
2023/10/01 10:04:20;;;;;;;1.60;1.25;;;;;;;;;;4999399;28;58446;-70
2023/10/01 10:06:59;;;;;;;4.20;1.55;;;;;;;;;;4997650;28;60188;-70
2023/10/01 10:09:25;;;;;;;5.18;2.40;;;;;;;;;;4998826;28;58415;-70
2023/10/01 10:11:50;;;;;;;2.60;1.48;;;;;;;;;;5000651;28;61517;-70
2023/10/01 10:14:24;;;;;;;3.50;1.47;;;;;;;;;;4999026;28;58755;-70
2023/10/01 10:16:56;;;;;;;3.78;1.73;;;;;;;;;;4997352;28;58437;-70
2023/10/01 10:19:21;;;;;;;2.95;1.73;;;;;;;;;;4999368;28;59486;-70
2023/10/01 10:22:05;;;;;;;3.23;1.50;;;;;;;;;;4999081;28;58792;-70
2023/10/01 10:24:34;;;;;;;1.75;1.40;;;;;;;;;;4999511;28;58291;-71
2023/10/01 10:27:03;;;;;;;1.55;1.40;;;;;;;;;;4998993;28;59587;-71
2023/10/01 10:29:46;;;;;;;2.42;1.17;;;;;;;;;;5000232;28;58456;-71
2023/10/01 10:32:12;;;;;;;2.25;2.05;;;;;;;;;;5000115;28;58831;-72
2023/10/01 10:34:47;;;;;;;2.10;1.38;;;;;;;;;;5000296;28;59758;-72
2023/10/01 10:37:33;;;;;;;1.95;1.50;;;;;;;;;;4999946;28;58349;-71
2023/10/01 10:40:12;;;;;;;2.15;1.63;;;;;;;;;;4999043;28;59375;-73
2023/10/01 10:42:38;;;;;;;1.95;1.23;;;;;;;;;;4998515;28;58887;-72
2023/10/01 10:45:23;;;;;;;2.25;1.50;;;;;;;;;;4999109;28;58398;-73
2023/10/01 10:47:58;;;;;;;3.03;1.92;;;;;;;;;;4998692;28;60241;-73
2023/10/01 10:50:39;;;;;;;4.25;1.80;;;;;;;;;;4998850;28;58865;-74
2023/10/01 10:53:14;;;;;;;3.78;2.30;;;;;;;;;;5000165;28;59741;-73
2023/10/01 10:55:39;;;;;;;1.65;1.33;;;;;;;;;;4999186;28;59779;-73
2023/10/01 10:58:12;;;;;;;3.57;2.07;;;;;;;;;;5000154;28;58477;-72
2023/10/01 11:00:40;;;;;;;2.17;1.20;;;;;;;;;;4999832;28;59796;-73
2023/10/01 11:03:10;;;;;;;1.45;1.30;;;;;;;;;;4998324;28;58488;-72
2023/10/01 11:05:49;;;;;;;3.25;1.90;;;;;;;;;;4999053;28;58577;-72
2023/10/01 11:08:25;;;;;;;1.67;1.30;;;;;;;;;;4999188;28;59694;-73
2023/10/01 11:10:51;;;;;;;2.13;1.40;;;;;;;;;;4999064;28;60007;-73
2023/10/01 11:13:27;;;;;;;2.50;1.40;;;;;;;;;;5000514;28;58275;-72
2023/10/01 11:15:52;;;;;;;1.40;1.30;;;;;;;;;;4999201;28;58860;-72
2023/10/01 11:18:17;;;;;;;1.33;1.20;;;;;;;;;;4999079;28;58263;-72
2023/10/01 11:20:46;;;;;;;2.20;1.33;;;;;;;;;;4997464;28;58895;-72
2023/10/01 11:23:12;;;;;;;1.40;1.30;;;;;;;;;;4998372;28;59796;-72
2023/10/01 11:25:40;;;;;;;2.10;1.88;;;;;;;;;;4999122;28;58394;-72
2023/10/01 11:28:05;;;;;;;1.48;1.30;;;;;;;;;;4996431;28;59327;-72
2023/10/01 11:30:36;;;;;;;2.87;1.53;;;;;;;;;;4990008;28;58846;-75
2023/10/01 11:35:37;;;;;;;1.98;1.52;;;;;;;;;;4994253;28;59118;-72
2023/10/01 11:38:22;;;;;;;2.42;1.50;;;;;;;;;;4996665;28;58415;-71
2023/10/01 11:44:06;;;;;;;2.17;1.98;;;;;;;;;;4998365;28;61515;-71
2023/10/01 11:46:35;;;;;;;1.80;1.60;;;;;;;;;;4997252;28;58637;-71
2023/10/01 11:49:06;;;;;;;2.47;1.70;;;;;;;;;;4999373;28;59532;-70
2023/10/01 11:54:19;;;;;;;5.43;1.55;;;;;;;;;;4997124;28;58564;-71
2023/10/01 11:57:04;;;;;;;2.40;1.42;;;;;;;;;;4997396;28;58620;-71
2023/10/01 11:59:29;;;;;;;5.18;2.05;;;;;;;;;;4995600;28;58562;-71
2023/10/01 12:01:54;;;;;;;2.97;1.42;;;;;;;;;;4996814;28;58518;-72
2023/10/01 12:04:43;;;;;;;4.80;1.70;;;;;;;;;;4995404;28;59358;-71
2023/10/01 12:07:18;;;;;;;2.90;1.45;;;;;;;;;;4992042;28;59568;-72
2023/10/01 12:09:48;;;;;;;2.70;1.38;;;;;;;;;;4994754;28;60192;-72
2023/10/01 12:12:14;;;;;;;2.60;1.80;;;;;;;;;;4996182;28;58950;-72
2023/10/01 12:15:33;;;;;;;2.90;1.98;;;;;;;;;;4995922;28;58404;-68
2023/10/01 12:17:44;;;;;;;5.25;1.95;;;;;;;;;;4991897;28;58434;-72
2023/10/01 12:20:21;;;;;;;5.30;2.00;;;;;;;;;;4995499;28;58984;-73
2023/10/01 12:23:03;;;;;;;1.60;1.35;;;;;;;;;;4994051;28;60217;-70
2023/10/01 12:25:42;;;;;;;5.20;1.67;;;;;;;;;;4995484;28;65937;-74
2023/10/01 12:28:17;;;;;;;2.40;1.88;;;;;;;;;;4992877;28;58533;-71
2023/10/01 12:30:43;;;;;;;4.47;1.77;;;;;;;;;;4996097;28;59395;-71
2023/10/01 12:33:09;;;;;;;3.42;1.75;;;;;;;;;;4999885;28;58649;-76
2023/10/01 12:35:34;;;;;;;4.53;1.73;;;;;;;;;;5000842;28;58517;-72
2023/10/01 12:38:23;;;;;;;2.35;1.42;;;;;;;;;;4999079;28;59644;-72
2023/10/01 12:40:54;;;;;;;3.17;1.38;;;;;;;;;;4993686;28;63250;-72
2023/10/01 12:43:36;;;;;;;6.25;2.08;;;;;;;;;;4997117;28;58565;-69
2023/10/01 12:46:03;;;;;;;4.25;1.63;;;;;;;;;;4999285;28;59771;-71
2023/10/01 12:48:29;;;;;;;3.20;1.63;;;;;;;;;;4999816;28;58588;-69
2023/10/01 12:51:00;;;;;;;2.75;1.35;;;;;;;;;;4998255;28;59327;-71
2023/10/01 12:53:26;;;;;;;2.28;1.52;;;;;;;;;;4993364;28;60004;-69
2023/10/01 12:55:52;;;;;;;3.42;2.35;;;;;;;;;;4998459;28;58333;-75
2023/10/01 12:58:35;;;;;;;6.00;1.63;;;;;;;;;;4998871;28;59469;-77
2023/10/01 13:01:01;;;;;;;3.92;2.00;;;;;;;;;;4998409;28;59928;-72
2023/10/01 13:03:29;;;;;;;4.60;1.77;;;;;;;;;;4998141;28;58421;-72
2023/10/01 13:05:55;;;;;;;2.22;1.40;;;;;;;;;;4999210;28;59514;-71
2023/10/01 13:08:29;;;;;;;4.10;1.52;;;;;;;;;;4999655;28;58596;-78
2023/10/01 13:10:55;;;;;;;3.65;1.48;;;;;;;;;;4998519;28;59808;-75
2023/10/01 13:13:29;;;;;;;2.20;1.58;;;;;;;;;;4999383;28;59113;-74
2023/10/01 13:15:54;;;;;;;2.75;1.88;;;;;;;;;;4996432;28;58416;-70
2023/10/01 13:18:22;;;;;;;2.93;1.47;;;;;;;;;;4986173;28;60737;-71
2023/10/01 13:23:25;;;;;;;3.15;1.77;;;;;;;;;;4999453;28;58540;-73
2023/10/01 13:26:05;;;;;;;4.47;1.92;;;;;;;;;;5001559;28;58489;-72
2023/10/01 13:28:43;;;;;;;2.22;1.65;;;;;;;;;;5000175;28;63571;-68
2023/10/01 13:31:10;;;;;;;7.20;2.22;;;;;;;;;;4998717;28;60172;-74
2023/10/01 13:36:35;;;;;;;6.25;2.40;;;;;;;;;;4998392;28;58468;-73
2023/10/01 13:39:25;;;;;;;2.70;2.25;;;;;;;;;;4999429;28;59313;-71
2023/10/01 14:09:21;;;;;;;2.97;2.30;;;;;;;;;;4998330;28;58465;-72
2023/10/01 14:11:54;;;;;;;3.38;2.17;;;;;;;;;;4998673;28;58882;-72
2023/10/01 14:14:19;;;;;;;3.72;1.70;;;;;;;;;;4999815;28;58758;-72
2023/10/01 14:17:12;;;;;;;3.65;2.72;;;;;;;;;;4998675;28;59092;-72
2023/10/01 14:19:30;;;;;;;6.35;1.55;;;;;;;;;;4998108;28;58584;-72
2023/10/01 14:21:55;;;;;;;6.38;2.15;;;;;;;;;;4999367;28;59607;-72
2023/10/01 14:24:24;;;;;;;2.23;1.70;;;;;;;;;;4999325;28;58681;-72
2023/10/01 14:26:50;;;;;;;3.22;1.60;;;;;;;;;;4998061;28;58569;-72
2023/10/01 14:29:22;;;;;;;3.17;1.67;;;;;;;;;;4999356;28;59386;-72
2023/10/01 14:31:50;;;;;;;4.00;2.28;;;;;;;;;;4998944;28;59063;-70
2023/10/01 14:34:20;;;;;;;4.15;1.60;;;;;;;;;;4999058;28;58535;-70
2023/10/01 14:36:45;;;;;;;3.45;2.22;;;;;;;;;;4997373;28;59775;-70
2023/10/01 14:39:12;;;;;;;5.47;2.28;;;;;;;;;;4999121;28;58436;-71
2023/10/01 14:41:41;;;;;;;5.10;1.70;;;;;;;;;;4999371;28;60497;-70
2023/10/01 14:44:07;;;;;;;3.13;2.15;;;;;;;;;;4998300;28;59207;-70
2023/10/01 14:46:33;;;;;;;3.28;2.00;;;;;;;;;;5000364;28;58406;-70
2023/10/01 14:49:05;;;;;;;2.30;1.60;;;;;;;;;;5000287;28;60504;-70
2023/10/01 14:51:31;;;;;;;3.85;1.75;;;;;;;;;;4998057;28;59325;-70
2023/10/01 14:53:57;;;;;;;3.33;1.58;;;;;;;;;;4997487;28;58485;-70
2023/10/01 14:56:22;;;;;;;3.92;1.98;;;;;;;;;;4998991;28;59459;-70
2023/10/01 14:58:51;;;;;;;4.85;1.88;;;;;;;;;;4999281;28;60431;-70
2023/10/01 15:01:17;;;;;;;2.97;2.05;;;;;;;;;;4999054;28;60173;-70
2023/10/01 15:03:42;;;;;;;2.75;2.22;;;;;;;;;;4997056;28;58820;-70
2023/10/01 15:06:07;;;;;;;8.35;1.95;;;;;;;;;;4999255;28;58355;-70
2023/10/01 15:08:36;;;;;;;1.97;1.67;;;;;;;;;;4997517;28;59539;-69
2023/10/01 15:11:11;;;;;;;2.97;2.00;;;;;;;;;;4998965;28;58599;-71
2023/10/01 15:13:38;;;;;;;4.35;2.05;;;;;;;;;;4999061;28;58342;-70
2023/10/01 15:16:03;;;;;;;2.60;1.80;;;;;;;;;;4998499;28;60791;-70
2023/10/01 15:18:32;;;;;;;3.43;1.53;;;;;;;;;;4998861;28;59845;-70
2023/10/01 15:20:57;;;;;;;3.33;1.67;;;;;;;;;;4998297;28;58465;-70
2023/10/01 15:23:22;;;;;;;4.63;2.53;;;;;;;;;;4998147;28;58437;-70
2023/10/01 15:25:47;;;;;;;5.63;2.27;;;;;;;;;;4998117;28;58511;-73
2023/10/01 15:28:15;;;;;;;6.07;1.90;;;;;;;;;;5000950;28;59421;-77
2023/10/01 15:30:44;;;;;;;;;;;;;;;;;;4985984;28;58769;-75
2023/10/01 15:33:15;;;;;;;4.22;2.75;;;;;;;;;;5000206;28;58297;-75
2023/10/01 15:35:43;;;;;;;2.78;1.75;;;;;;;;;;4997973;28;60435;-74
2023/10/01 15:38:08;;;;;;;4.00;2.72;;;;;;;;;;4998408;28;59622;-76
2023/10/01 15:40:36;;;;;;;3.38;2.45;;;;;;;;;;4999214;28;58398;-73
2023/10/01 15:43:02;;;;;;;;;;;;;;;;;;4998188;28;59725;-71
2023/10/01 15:45:30;;;;;;;9.57;2.95;;;;;;;;;;4999315;28;58371;-74
2023/10/01 15:47:58;;;;;;;5.82;2.63;;;;;;;;;;4998090;28;59574;-75
2023/10/01 15:50:37;;;;;;;4.35;2.50;;;;;;;;;;4997382;28;58843;-78
2023/10/01 15:53:04;;;;;;;4.90;2.28;;;;;;;;;;4999199;28;58428;-73
2023/10/01 15:55:32;;;;;;;4.13;2.95;;;;;;;;;;4998553;28;58716;-78
2023/10/01 15:58:03;;;;;;;3.70;2.38;;;;;;;;;;4998298;28;58841;-75
2023/10/01 16:00:34;;;;;;;3.20;2.35;;;;;;;;;;4998520;28;58997;-75
2023/10/01 16:03:05;;;;;;;2.97;2.30;;;;;;;;;;4997253;28;60419;-75